Time;durP1;ratioP1;P1;durP2;ratioP2;P2;SDS_P1;SDS_P2;PMS_P1;PMS_P2;Temp;Humidity;BMP_temperature;BMP_pressure;BME280_temperature;BME280_humidity;BME280_pressure;Samples;Min_cycle;Max_cycle;Signal;HPM_P1;HPM_P2
2022/10/16 00:01:13;;;;;;;6.05;3.20;;;14.90;99.90;;;;;;5032253;28;20401;-73
2022/10/16 00:03:40;;;;;;;5.65;3.40;;;14.90;99.90;;;;;;5028464;28;20033;-73
2022/10/16 00:06:07;;;;;;;6.63;3.60;;;14.80;99.90;;;;;;5030411;28;20029;-75
2022/10/16 00:08:34;;;;;;;8.30;3.38;;;14.80;99.90;;;;;;5030615;28;20112;-74
2022/10/16 00:11:14;;;;;;;7.85;3.70;;;14.80;99.90;;;;;;5036278;28;20049;-75
2022/10/16 00:13:42;;;;;;;7.95;3.40;;;14.80;99.90;;;;;;5036342;28;20024;-74
2022/10/16 00:16:12;;;;;;;6.60;3.20;;;14.70;99.90;;;;;;5033192;28;20082;-74
2022/10/16 00:18:41;;;;;;;7.68;3.33;;;14.80;99.90;;;;;;5039717;28;20021;-74
2022/10/16 00:21:09;;;;;;;7.13;3.65;;;14.80;99.90;;;;;;5031656;28;20065;-75
2022/10/16 00:23:36;;;;;;;6.55;3.22;;;14.80;99.90;;;;;;5030662;28;20057;-75
2022/10/16 00:26:08;;;;;;;7.80;3.45;;;14.80;99.90;;;;;;5030378;28;20086;-75
2022/10/16 00:28:36;;;;;;;10.90;3.25;;;14.80;99.90;;;;;;5029950;28;20101;-74
2022/10/16 00:31:10;;;;;;;6.50;2.85;;;14.80;99.90;;;;;;5031464;28;20100;-75
2022/10/16 00:33:37;;;;;;;6.53;3.17;;;14.80;99.90;;;;;;5030048;28;20050;-74
2022/10/16 00:36:04;;;;;;;5.97;3.13;;;14.80;99.90;;;;;;5036713;28;20033;-76
2022/10/16 00:38:32;;;;;;;6.03;3.38;;;14.80;99.90;;;;;;5042648;28;20356;-75
2022/10/16 00:40:58;;;;;;;4.22;3.25;;;14.70;99.90;;;;;;5037712;28;20040;-76
2022/10/16 00:43:42;;;;;;;9.23;2.97;;;14.70;99.90;;;;;;5038743;28;20041;-75
2022/10/16 00:46:36;;;;;;;6.78;3.80;;;14.70;99.90;;;;;;5033675;28;20021;-74
2022/10/16 00:49:02;;;;;;;6.90;2.95;;;14.70;99.90;;;;;;5031864;28;20025;-75
2022/10/16 00:51:49;;;;;;;4.30;3.03;;;14.60;99.90;;;;;;5029753;28;20044;-74
2022/10/16 00:54:25;;;;;;;5.50;2.97;;;14.50;99.90;;;;;;5031981;28;20049;-75
2022/10/16 00:56:52;;;;;;;3.85;3.05;;;14.50;99.90;;;;;;5029836;28;20072;-75
2022/10/16 00:59:26;;;;;;;6.97;3.25;;;14.50;99.90;;;;;;5031464;28;20068;-74
2022/10/16 01:01:52;;;;;;;7.30;3.33;;;14.40;99.90;;;;;;5032878;28;20032;-75
2022/10/16 01:04:18;;;;;;;4.18;2.97;;;14.50;99.90;;;;;;5028199;28;20084;-73
2022/10/16 01:07:09;;;;;;;6.90;3.08;;;14.50;99.90;;;;;;5031150;28;20117;-74
2022/10/16 01:09:43;;;;;;;5.03;3.25;;;14.50;99.90;;;;;;5031981;28;20021;-75
2022/10/16 01:12:19;;;;;;;10.88;3.10;;;14.50;99.90;;;;;;5038844;28;20037;-74
2022/10/16 01:14:51;;;;;;;7.47;3.20;;;14.50;99.90;;;;;;5028173;28;20514;-75
2022/10/16 01:17:27;;;;;;;8.93;2.78;;;14.50;99.90;;;;;;5027558;28;20017;-74
2022/10/16 01:20:01;;;;;;;5.22;2.58;;;14.50;99.90;;;;;;5032168;28;20044;-75
2022/10/16 01:22:54;;;;;;;6.03;2.90;;;14.50;99.90;;;;;;5028225;28;20025;-74
2022/10/16 01:25:36;;;;;;;14.55;2.78;;;14.50;99.90;;;;;;5020104;28;20052;-74
2022/10/16 01:28:06;;;;;;;4.17;2.50;;;14.50;99.90;;;;;;5034375;28;20498;-76
2022/10/16 01:30:33;;;;;;;2.97;2.65;;;14.40;99.90;;;;;;5036987;28;20029;-75
2022/10/16 01:33:26;;;;;;;7.55;3.05;;;14.40;99.90;;;;;;5031640;28;20455;-75
2022/10/16 01:36:04;;;;;;;4.85;2.88;;;14.40;99.90;;;;;;5029928;28;20448;-74
2022/10/16 01:43:40;;;;;;;;;;;14.50;99.90;;;;;;4970049;28;20058;-75
2022/10/16 01:46:07;;;;;;;5.20;2.40;;;14.50;99.90;;;;;;4990790;28;19967;-74
2022/10/16 01:48:35;;;;;;;6.93;2.25;;;14.60;99.90;;;;;;4979089;28;20057;-74
2022/10/16 01:51:08;;;;;;;4.40;2.03;;;14.60;99.90;;;;;;4980254;28;20031;-75
2022/10/16 01:53:34;;;;;;;3.45;1.95;;;14.60;99.90;;;;;;4975041;28;20019;-76
2022/10/16 01:56:07;;;;;;;3.17;2.20;;;14.60;99.90;;;;;;4970498;28;20064;-73
2022/10/16 01:58:37;;;;;;;6.78;2.30;;;14.70;99.90;;;;;;4970975;28;20031;-73
2022/10/16 02:01:07;;;;;;;2.30;2.03;;;14.60;99.90;;;;;;4976286;28;20035;-75
2022/10/16 02:03:37;;;;;;;4.57;2.00;;;14.70;99.90;;;;;;4976902;28;20041;-74
2022/10/16 02:06:03;;;;;;;4.68;2.10;;;14.60;99.90;;;;;;4970974;28;20030;-75
2022/10/16 02:08:32;;;;;;;5.03;2.00;;;14.60;99.90;;;;;;4973909;28;20033;-74
2022/10/16 02:11:00;;;;;;;6.57;2.00;;;14.70;99.90;;;;;;4971764;28;20027;-74
2022/10/16 02:13:32;;;;;;;5.03;2.00;;;14.60;99.90;;;;;;4969655;28;20118;-73
2022/10/16 02:15:58;;;;;;;4.80;1.80;;;14.70;99.90;;;;;;4988852;28;20443;-75
2022/10/16 02:18:29;;;;;;;3.67;2.45;;;14.60;99.90;;;;;;4973393;28;20034;-75
2022/10/16 02:21:04;;;;;;;5.40;1.70;;;14.60;99.90;;;;;;4973272;28;20084;-75
2022/10/16 02:23:48;;;;;;;5.15;1.90;;;14.50;99.90;;;;;;4972285;28;20094;-75
2022/10/16 02:26:23;;;;;;;6.43;1.83;;;14.50;99.90;;;;;;4978285;28;20121;-74
2022/10/16 02:28:57;;;;;;;4.88;1.80;;;14.40;99.90;;;;;;4969508;28;20015;-74
2022/10/16 02:31:28;;;;;;;6.55;1.80;;;14.50;99.90;;;;;;4974624;28;20035;-74
2022/10/16 02:33:57;;;;;;;4.63;2.25;;;14.40;99.90;;;;;;4971742;28;20475;-73
2022/10/16 02:36:23;;;;;;;3.90;2.28;;;14.40;99.90;;;;;;4973270;28;20051;-75
2022/10/16 02:38:49;;;;;;;3.95;1.98;;;14.40;99.90;;;;;;4975240;28;20368;-73
2022/10/16 02:41:15;;;;;;;4.53;1.85;;;14.30;99.90;;;;;;4976092;28;20062;-75
2022/10/16 02:43:41;;;;;;;2.85;1.88;;;14.40;99.90;;;;;;4975067;28;20133;-75
2022/10/16 02:46:06;;;;;;;3.90;1.80;;;14.40;99.90;;;;;;4971402;28;20038;-75
2022/10/16 02:48:32;;;;;;;4.03;1.83;;;14.40;99.90;;;;;;4956733;28;20152;-72
2022/10/16 02:50:58;;;;;;;7.15;1.63;;;14.30;99.90;;;;;;4964214;28;20058;-74
2022/10/16 02:53:25;;;;;;;2.90;1.77;;;14.40;99.90;;;;;;4953202;28;20015;-75
2022/10/16 02:55:51;;;;;;;2.53;1.58;;;14.40;99.90;;;;;;4952319;28;20039;-74
2022/10/16 02:58:17;;;;;;;4.97;2.13;;;14.40;99.90;;;;;;4951062;28;20147;-74
2022/10/16 03:00:42;;;;;;;1.70;1.60;;;14.30;99.90;;;;;;4957041;28;20033;-75
2022/10/16 03:03:10;;;;;;;1.70;1.60;;;14.30;99.90;;;;;;4951718;28;20038;-72
2022/10/16 03:05:36;;;;;;;3.80;2.15;;;14.30;99.90;;;;;;4958262;28;20028;-74
2022/10/16 03:08:01;;;;;;;6.30;1.70;;;14.30;99.90;;;;;;4951173;28;20453;-75
2022/10/16 03:10:27;;;;;;;2.67;1.55;;;14.30;99.90;;;;;;4956634;28;20028;-73
2022/10/16 03:12:53;;;;;;;7.60;1.50;;;14.30;99.90;;;;;;4951743;28;20099;-74
2022/10/16 03:15:18;;;;;;;4.85;1.60;;;14.30;99.90;;;;;;4956051;28;20035;-75
2022/10/16 03:17:44;;;;;;;3.53;1.40;;;14.30;99.90;;;;;;4950438;28;20118;-75
2022/10/16 03:20:12;;;;;;;2.00;1.30;;;14.30;99.90;;;;;;4953108;28;20027;-74
2022/10/16 03:22:40;;;;;;;4.63;2.17;;;14.30;99.90;;;;;;4949022;28;20028;-75
2022/10/16 03:25:08;;;;;;;1.70;1.45;;;14.30;99.90;;;;;;4957860;28;20046;-75
2022/10/16 03:27:34;;;;;;;4.38;1.35;;;14.30;99.90;;;;;;4954435;28;20078;-75
2022/10/16 03:29:59;;;;;;;1.50;1.40;;;14.30;99.90;;;;;;4957825;28;20284;-74
2022/10/16 03:32:28;;;;;;;2.03;1.30;;;14.40;99.90;;;;;;4969220;28;20499;-75
2022/10/16 03:34:56;;;;;;;4.43;1.63;;;14.20;99.90;;;;;;4952239;28;20142;-75
2022/10/16 03:37:22;;;;;;;2.58;1.40;;;14.20;99.90;;;;;;4969582;28;20484;-75
2022/10/16 03:39:48;;;;;;;1.50;1.30;;;14.20;99.90;;;;;;4955323;28;20027;-74
2022/10/16 03:42:13;;;;;;;3.17;1.70;;;14.30;99.90;;;;;;4950813;28;20019;-75
2022/10/16 03:44:41;;;;;;;4.70;1.45;;;14.30;99.90;;;;;;4952938;28;20019;-75
2022/10/16 03:47:09;;;;;;;2.15;1.30;;;14.20;99.90;;;;;;4948061;28;20102;-74
2022/10/16 03:49:37;;;;;;;4.45;1.60;;;14.40;99.90;;;;;;4953392;28;20020;-74
2022/10/16 03:52:07;;;;;;;2.25;1.35;;;14.40;99.90;;;;;;4958560;28;20039;-74
2022/10/16 03:54:33;;;;;;;1.60;1.50;;;14.30;99.90;;;;;;4957768;28;20547;-74
2022/10/16 03:56:58;;;;;;;2.00;1.48;;;14.40;99.90;;;;;;4958670;28;20035;-74
2022/10/16 03:59:24;;;;;;;1.90;1.30;;;14.30;99.90;;;;;;4960654;28;20027;-73
2022/10/16 04:01:49;;;;;;;2.28;1.40;;;14.40;99.90;;;;;;4962022;28;20030;-74
2022/10/16 04:04:15;;;;;;;4.53;1.75;;;14.40;99.90;;;;;;4951560;28;20418;-74
2022/10/16 04:06:40;;;;;;;1.80;1.30;;;14.40;99.90;;;;;;4948466;28;20046;-75
2022/10/16 04:09:08;;;;;;;5.38;1.23;;;14.40;99.90;;;;;;4948331;28;20098;-73
2022/10/16 04:11:34;;;;;;;6.38;1.10;;;14.40;99.90;;;;;;4950002;28;20110;-75
2022/10/16 04:14:00;;;;;;;4.32;1.40;;;14.40;99.90;;;;;;4957005;28;20426;-74
2022/10/16 04:16:25;;;;;;;4.38;1.40;;;14.40;99.90;;;;;;4946417;28;20026;-74
2022/10/16 04:18:51;;;;;;;4.50;1.50;;;14.50;99.90;;;;;;4945781;28;20113;-75
2022/10/16 04:21:16;;;;;;;5.25;1.40;;;14.40;99.90;;;;;;4956916;28;20124;-74
2022/10/16 04:23:45;;;;;;;3.83;1.20;;;14.40;99.90;;;;;;4959148;28;20098;-74
2022/10/16 04:26:12;;;;;;;1.40;0.90;;;14.50;99.90;;;;;;4959156;28;20066;-75
2022/10/16 04:28:38;;;;;;;3.08;1.10;;;14.50;99.90;;;;;;4968986;28;20026;-74
2022/10/16 04:31:05;;;;;;;1.92;1.13;;;14.40;99.90;;;;;;4955743;28;20035;-74
2022/10/16 04:33:33;;;;;;;4.53;1.10;;;14.50;99.90;;;;;;4948405;28;20023;-74
2022/10/16 04:36:00;;;;;;;2.00;1.20;;;14.60;99.90;;;;;;4952608;28;20039;-74
2022/10/16 04:38:29;;;;;;;1.38;1.27;;;14.50;99.90;;;;;;4960222;28;20038;-74
2022/10/16 04:40:54;;;;;;;4.93;1.98;;;14.50;99.90;;;;;;4958276;28;20031;-74
2022/10/16 04:43:23;;;;;;;3.33;1.23;;;14.50;99.90;;;;;;4960580;28;20034;-74
2022/10/16 04:45:52;;;;;;;2.30;1.05;;;14.50;99.90;;;;;;4961429;28;20042;-74
2022/10/16 04:48:18;;;;;;;2.50;1.60;;;14.50;99.90;;;;;;4958633;28;20126;-74
2022/10/16 04:50:49;;;;;;;2.03;1.00;;;14.60;99.90;;;;;;4961645;28;20102;-75
2022/10/16 04:53:14;;;;;;;1.63;1.30;;;14.60;99.90;;;;;;4950371;28;20529;-75
2022/10/16 04:55:41;;;;;;;1.33;1.10;;;14.50;99.90;;;;;;4952673;28;20121;-74
2022/10/16 04:58:09;;;;;;;1.92;1.35;;;14.50;99.90;;;;;;4953217;28;20405;-74
2022/10/16 05:00:35;;;;;;;1.30;1.20;;;14.50;99.90;;;;;;4955608;28;20372;-75
2022/10/16 05:03:08;;;;;;;1.65;1.20;;;14.50;99.90;;;;;;4955454;28;20059;-75
2022/10/16 05:05:34;;;;;;;;;;;14.40;99.90;;;;;;4959340;28;20035;-75
2022/10/16 05:07:59;;;;;;;1.73;1.10;;;14.50;99.90;;;;;;4963772;28;19990;-74
2022/10/16 05:10:25;;;;;;;2.40;1.80;;;14.50;99.90;;;;;;4955044;28;20448;-74
2022/10/16 05:12:51;;;;;;;5.05;1.50;;;14.50;99.90;;;;;;4962678;28;20015;-74
2022/10/16 05:15:17;;;;;;;4.20;1.10;;;14.40;99.90;;;;;;4956178;28;20346;-75
2022/10/16 05:17:43;;;;;;;2.50;1.13;;;14.40;99.90;;;;;;4957083;28;20070;-74
2022/10/16 05:20:08;;;;;;;5.15;1.10;;;14.40;99.90;;;;;;4951569;28;20047;-73
2022/10/16 05:22:34;;;;;;;2.70;1.20;;;14.40;99.90;;;;;;4951490;28;20491;-74
2022/10/16 05:24:59;;;;;;;1.45;1.20;;;14.40;99.90;;;;;;4951356;28;20111;-74
2022/10/16 05:27:27;;;;;;;5.07;1.17;;;14.40;99.90;;;;;;4956465;28;20097;-74
2022/10/16 05:29:53;;;;;;;2.28;1.52;;;14.40;99.90;;;;;;4962524;28;20085;-74
2022/10/16 05:32:21;;;;;;;5.10;1.02;;;14.40;99.90;;;;;;4960532;28;20413;-73
2022/10/16 05:34:46;;;;;;;1.40;1.30;;;14.30;99.90;;;;;;4964706;28;20019;-74
2022/10/16 05:37:12;;;;;;;4.05;1.33;;;14.30;99.90;;;;;;4958105;28;20023;-75
2022/10/16 05:39:38;;;;;;;2.17;1.10;;;14.30;99.90;;;;;;4960670;28;20110;-75
2022/10/16 05:42:05;;;;;;;2.38;1.42;;;14.30;99.90;;;;;;4951488;28;20075;-74
2022/10/16 05:44:31;;;;;;;1.98;1.10;;;14.30;99.90;;;;;;4952299;28;20035;-75
2022/10/16 05:46:56;;;;;;;1.58;1.08;;;14.30;99.90;;;;;;4954958;28;20054;-75
2022/10/16 05:49:22;;;;;;;3.85;1.73;;;14.30;99.90;;;;;;4963195;28;20019;-75
2022/10/16 05:51:48;;;;;;;4.10;1.13;;;14.30;99.90;;;;;;4958129;28;20472;-74
2022/10/16 05:54:13;;;;;;;2.75;1.17;;;14.30;99.90;;;;;;4958028;28;20050;-75
2022/10/16 05:56:39;;;;;;;2.58;1.35;;;14.30;99.90;;;;;;4960575;28;20036;-73
2022/10/16 05:59:08;;;;;;;2.58;1.20;;;14.30;99.90;;;;;;4961930;28;20034;-73
2022/10/16 06:01:35;;;;;;;2.83;1.27;;;14.30;99.90;;;;;;4961797;28;20114;-73
2022/10/16 06:04:01;;;;;;;2.80;1.35;;;14.30;99.90;;;;;;4957561;28;20039;-75
2022/10/16 06:06:28;;;;;;;2.10;1.20;;;14.40;99.90;;;;;;4956850;28;20039;-74
2022/10/16 06:08:59;;;;;;;3.67;1.50;;;14.30;99.90;;;;;;4953168;28;20035;-75
2022/10/16 06:11:29;;;;;;;6.93;1.33;;;14.30;99.90;;;;;;4950745;28;20110;-75
2022/10/16 06:14:02;;;;;;;9.10;1.10;;;14.30;99.90;;;;;;4968941;28;20074;-75
2022/10/16 06:16:30;;;;;;;3.92;1.20;;;14.30;99.90;;;;;;4954584;28;20027;-74
2022/10/16 06:18:59;;;;;;;4.40;1.20;;;14.30;99.90;;;;;;4957671;28;20449;-75
2022/10/16 06:21:26;;;;;;;8.55;1.20;;;14.30;99.90;;;;;;4958680;28;20472;-74
2022/10/16 06:23:55;;;;;;;1.50;1.20;;;14.20;99.90;;;;;;4963883;28;20035;-76
2022/10/16 06:26:24;;;;;;;6.68;1.45;;;14.30;99.90;;;;;;4954756;28;20114;-75
2022/10/16 06:28:52;;;;;;;1.60;1.13;;;14.20;99.90;;;;;;4957793;28;20022;-76
2022/10/16 06:31:18;;;;;;;1.50;1.40;;;14.30;99.90;;;;;;4955248;28;20034;-75
2022/10/16 06:33:45;;;;;;;2.08;1.10;;;14.40;99.90;;;;;;4950641;28;20054;-75
2022/10/16 06:36:14;;;;;;;3.70;1.20;;;14.30;99.90;;;;;;4950926;28;20353;-75
2022/10/16 06:38:40;;;;;;;2.78;1.40;;;14.30;99.90;;;;;;4952210;28;20031;-75
2022/10/16 06:41:07;;;;;;;1.48;1.38;;;14.30;99.90;;;;;;4954834;28;20635;-73
2022/10/16 06:43:35;;;;;;;1.40;1.30;;;14.30;99.90;;;;;;4955438;28;20341;-74
2022/10/16 06:46:01;;;;;;;8.55;1.73;;;14.30;99.90;;;;;;4971805;28;20027;-76
2022/10/16 06:48:30;;;;;;;2.47;1.23;;;14.30;99.90;;;;;;4963891;28;20031;-75
2022/10/16 06:50:58;;;;;;;1.42;1.33;;;14.40;99.90;;;;;;4960434;28;20039;-75
2022/10/16 06:53:27;;;;;;;4.75;1.27;;;14.40;99.90;;;;;;4958156;28;20115;-75
2022/10/16 06:55:53;;;;;;;2.97;1.50;;;14.40;99.90;;;;;;4963621;28;20027;-75
2022/10/16 06:58:19;;;;;;;1.65;1.05;;;14.40;99.90;;;;;;4956029;28;20043;-74
2022/10/16 07:00:46;;;;;;;4.15;1.40;;;14.40;99.90;;;;;;4953087;28;20031;-75
2022/10/16 07:03:12;;;;;;;1.58;1.48;;;14.40;99.90;;;;;;4961308;28;20051;-73
2022/10/16 07:05:42;;;;;;;1.95;1.27;;;14.50;99.90;;;;;;4961850;28;20031;-75
2022/10/16 07:08:10;;;;;;;1.70;1.48;;;14.50;99.90;;;;;;4965173;28;20032;-76
2022/10/16 07:10:38;;;;;;;3.53;1.55;;;14.60;99.90;;;;;;4961331;28;20027;-74
2022/10/16 07:13:07;;;;;;;2.45;1.30;;;14.60;99.90;;;;;;4970234;28;20118;-74
2022/10/16 07:15:33;;;;;;;4.57;1.25;;;14.60;99.90;;;;;;4966092;28;20023;-76
2022/10/16 07:17:59;;;;;;;4.50;1.48;;;14.70;99.90;;;;;;4966091;28;20034;-75
2022/10/16 07:20:25;;;;;;;5.50;1.52;;;14.70;99.90;;;;;;4958685;28;20075;-75
2022/10/16 07:22:51;;;;;;;2.40;1.38;;;14.80;99.90;;;;;;4953311;28;20027;-75
2022/10/16 07:25:17;;;;;;;2.08;1.58;;;14.90;99.90;;;;;;4952694;28;20042;-75
2022/10/16 07:27:42;;;;;;;5.82;1.48;;;14.90;99.90;;;;;;4951380;28;20028;-75
2022/10/16 07:30:13;;;;;;;2.13;1.50;;;14.90;99.90;;;;;;4960478;28;20102;-75
2022/10/16 07:32:39;;;;;;;1.92;1.40;;;15.00;99.90;;;;;;4960135;28;20037;-74
2022/10/16 07:35:05;;;;;;;6.25;1.65;;;15.10;99.90;;;;;;4962005;28;20055;-75
2022/10/16 07:37:30;;;;;;;3.97;1.77;;;15.20;99.90;;;;;;4959819;28;20023;-75
2022/10/16 07:39:58;;;;;;;4.90;2.20;;;15.20;99.90;;;;;;4964740;28;20050;-74
2022/10/16 07:42:27;;;;;;;4.95;1.75;;;15.30;99.90;;;;;;4965631;28;20031;-75
2022/10/16 07:44:52;;;;;;;5.43;1.65;;;15.40;99.90;;;;;;4963100;28;20039;-73
2022/10/16 07:47:20;;;;;;;5.55;2.10;;;15.50;99.90;;;;;;4960560;28;20031;-74
2022/10/16 07:49:46;;;;;;;5.13;1.88;;;15.50;99.90;;;;;;4954843;28;20033;-74
2022/10/16 07:52:14;;;;;;;2.30;1.88;;;15.50;99.90;;;;;;4958581;28;20031;-74
2022/10/16 07:54:39;;;;;;;2.15;2.00;;;15.60;99.90;;;;;;4961129;28;20031;-75
2022/10/16 07:57:05;;;;;;;2.85;1.40;;;15.70;99.90;;;;;;4961460;28;20031;-76
2022/10/16 07:59:33;;;;;;;4.30;1.88;;;15.70;99.90;;;;;;4954238;28;20881;-75
2022/10/16 08:01:58;;;;;;;3.42;1.50;;;15.80;99.90;;;;;;4966876;28;20040;-73
2022/10/16 08:04:24;;;;;;;4.95;1.52;;;16.00;99.90;;;;;;4964071;28;20042;-75
2022/10/16 08:06:49;;;;;;;7.45;2.08;;;16.00;99.90;;;;;;4953309;28;20035;-74
2022/10/16 08:09:15;;;;;;;3.58;1.80;;;16.00;99.90;;;;;;4957089;28;20027;-75
2022/10/16 08:11:41;;;;;;;2.80;1.65;;;16.00;99.90;;;;;;4959434;28;20035;-75
2022/10/16 08:14:06;;;;;;;3.08;1.60;;;16.20;99.90;;;;;;4947611;28;20079;-75
2022/10/16 08:16:32;;;;;;;1.75;1.30;;;16.40;99.90;;;;;;4951191;28;20093;-75
2022/10/16 08:18:58;;;;;;;3.72;1.42;;;16.40;99.90;;;;;;4959966;28;20834;-75
2022/10/16 08:21:23;;;;;;;4.75;1.67;;;16.60;99.90;;;;;;4967517;28;20471;-74
2022/10/16 08:23:50;;;;;;;4.80;1.70;;;16.70;99.90;;;;;;4953435;28;20095;-76
2022/10/16 08:26:18;;;;;;;2.55;1.45;;;16.90;99.90;;;;;;4961380;28;20045;-75
2022/10/16 08:28:44;;;;;;;3.55;1.40;;;17.10;99.90;;;;;;4956317;28;20546;-74
2022/10/16 08:31:11;;;;;;;2.60;1.40;;;17.20;99.90;;;;;;4941398;29;20093;-75
2022/10/16 08:33:47;;;;;;;3.45;1.33;;;17.40;99.90;;;;;;4959038;28;20027;-75
2022/10/16 08:36:12;;;;;;;1.73;1.23;;;17.40;99.90;;;;;;4961305;28;20105;-75
2022/10/16 08:38:39;;;;;;;2.45;1.30;;;17.30;99.90;;;;;;4954776;28;20057;-74
2022/10/16 08:41:42;;;;;;;6.07;1.42;;;17.50;99.90;;;;;;4951919;28;20089;-74
2022/10/16 08:44:29;;;;;;;2.33;1.30;;;17.70;99.90;;;;;;4958189;28;20031;-75
2022/10/16 08:47:16;;;;;;;182.13;81.88;;;18.50;99.90;;;;;;4955833;28;20530;-73
2022/10/16 08:49:49;;;;;;;16.33;7.88;;;19.30;99.90;;;;;;4956428;28;20030;-73
2022/10/16 08:52:15;;;;;;;8.68;3.45;;;19.90;99.90;;;;;;4956625;28;20083;-73
2022/10/16 08:54:48;;;;;;;4.85;1.48;;;20.00;99.90;;;;;;4953427;28;20035;-72
2022/10/16 08:57:19;;;;;;;10.32;1.35;;;20.60;99.90;;;;;;4955582;28;20035;-71
2022/10/16 08:59:45;;;;;;;5.97;1.20;;;21.20;99.90;;;;;;4955486;28;20063;-72
2022/10/16 09:02:29;;;;;;;4.72;1.33;;;21.20;99.90;;;;;;4953730;28;20031;-74
2022/10/16 09:05:00;;;;;;;;;;;21.40;99.90;;;;;;4954964;28;20030;-71
2022/10/16 09:08:00;;;;;;;7.15;1.40;;;22.10;99.90;;;;;;4952968;28;19914;-73
2022/10/16 09:10:53;;;;;;;4.18;1.27;;;22.60;99.90;;;;;;4956593;28;20098;-72
2022/10/16 09:13:19;;;;;;;1.75;1.20;;;22.40;99.90;;;;;;4950558;28;20112;-72
2022/10/16 09:15:49;;;;;;;4.78;1.30;;;22.70;99.90;;;;;;4952034;28;20108;-73
2022/10/16 09:18:29;;;;;;;3.83;1.35;;;22.30;99.70;;;;;;4967739;28;20050;-71
2022/10/16 09:21:23;;;;;;;4.15;1.30;;;22.20;99.90;;;;;;4954189;28;20035;-71
2022/10/16 09:23:49;;;;;;;3.67;1.30;;;21.60;99.90;;;;;;4956048;28;20082;-71
2022/10/16 09:26:19;;;;;;;3.55;1.35;;;22.00;99.80;;;;;;4957408;28;20039;-73
2022/10/16 09:28:45;;;;;;;7.90;1.33;;;22.40;99.40;;;;;;4955790;28;20082;-71
2022/10/16 09:31:28;;;;;;;2.80;1.35;;;22.30;99.70;;;;;;4954030;28;20074;-71
2022/10/16 09:33:59;;;;;;;5.72;1.25;;;22.40;99.20;;;;;;4953578;28;20043;-72
2022/10/16 09:36:28;;;;;;;3.17;1.13;;;22.30;99.40;;;;;;4949113;28;20031;-72
2022/10/16 09:39:09;;;;;;;5.32;1.60;;;21.80;98.30;;;;;;4951541;28;20035;-72
2022/10/16 09:41:38;;;;;;;10.95;2.13;;;21.90;99.80;;;;;;4952423;28;20038;-72
2022/10/16 09:44:16;;;;;;;3.50;1.33;;;21.60;98.60;;;;;;4951826;28;20035;-74
2022/10/16 09:46:42;;;;;;;3.58;1.10;;;21.70;99.90;;;;;;4953216;28;20484;-76
2022/10/16 09:49:25;;;;;;;1.20;1.08;;;21.60;99.90;;;;;;4952245;28;20023;-74
2022/10/16 09:52:04;;;;;;;2.05;1.00;;;21.70;99.90;;;;;;4946255;28;20062;-75
2022/10/16 09:54:29;;;;;;;3.63;1.55;;;21.50;99.50;;;;;;4953709;28;20472;-73
2022/10/16 09:57:05;;;;;;;4.78;1.50;;;21.70;99.90;;;;;;4956327;28;20039;-75
2022/10/16 09:59:31;;;;;;;6.22;1.38;;;21.70;99.80;;;;;;4961273;28;20035;-74
2022/10/16 10:02:03;;;;;;;7.75;1.45;;;21.70;99.90;;;;;;4955450;28;20456;-73
2022/10/16 10:04:38;;;;;;;6.15;1.60;;;21.70;99.70;;;;;;4954889;28;20031;-73
2022/10/16 10:07:04;;;;;;;4.68;1.48;;;21.90;99.70;;;;;;4954729;28;20524;-73
2022/10/16 10:09:39;;;;;;;3.63;1.13;;;21.80;99.20;;;;;;4952037;28;20049;-76
2022/10/16 10:12:16;;;;;;;5.25;1.55;;;21.40;99.10;;;;;;4968933;28;20034;-76
2022/10/16 10:14:46;;;;;;;3.33;1.50;;;21.10;99.90;;;;;;4954705;28;20075;-75
2022/10/16 10:17:20;;;;;;;5.22;1.52;;;21.20;99.10;;;;;;4953959;28;20467;-72
2022/10/16 10:19:53;;;;;;;2.67;1.10;;;21.20;99.90;;;;;;4947486;28;20035;-76
2022/10/16 10:22:22;;;;;;;;;;;21.10;99.90;;;;;;4955395;28;20038;-72
2022/10/16 10:25:11;;;;;;;4.75;1.60;;;21.10;99.80;;;;;;4950050;28;19906;-76
2022/10/16 10:28:01;;;;;;;3.40;1.50;;;21.40;99.90;;;;;;4947752;28;20043;-74
2022/10/16 10:30:27;;;;;;;3.40;1.63;;;22.10;98.50;;;;;;4949252;28;20098;-74
2022/10/16 10:33:05;;;;;;;8.98;1.40;;;22.50;98.20;;;;;;4960396;28;20130;-75
2022/10/16 10:35:41;;;;;;;3.50;1.48;;;22.40;97.80;;;;;;4962665;28;20031;-75
2022/10/16 10:38:42;;;;;;;5.57;1.20;;;22.30;96.60;;;;;;4957229;28;20060;-74
2022/10/16 10:41:26;;;;;;;34.08;16.42;;;22.50;96.30;;;;;;4950613;28;20071;-82
2022/10/16 10:43:55;;;;;;;6.15;1.30;;;22.40;96.10;;;;;;4954853;28;20027;-79
2022/10/16 10:46:34;;;;;;;3.88;1.23;;;22.40;95.60;;;;;;4957708;28;20031;-73
2022/10/16 10:49:20;;;;;;;6.22;1.50;;;22.60;95.10;;;;;;4959460;28;20042;-73
2022/10/16 10:51:48;;;;;;;5.82;1.50;;;22.40;95.30;;;;;;4955924;28;20035;-74
2022/10/16 10:54:16;;;;;;;4.50;1.50;;;22.70;95.10;;;;;;4952515;28;20023;-73
2022/10/16 10:56:55;;;;;;;4.53;1.45;;;22.80;94.50;;;;;;4953826;28;20023;-75
2022/10/16 10:59:38;;;;;;;4.07;1.33;;;22.80;93.70;;;;;;4954709;28;20453;-75
2022/10/16 11:02:10;;;;;;;3.35;1.60;;;22.80;93.50;;;;;;4956191;28;20600;-72
2022/10/16 11:04:57;;;;;;;6.10;1.57;;;22.60;93.20;;;;;;4954204;28;20109;-74
2022/10/16 11:07:30;;;;;;;4.38;1.40;;;22.80;93.00;;;;;;4950092;28;20283;-75
2022/10/16 11:10:12;;;;;;;11.15;1.35;;;22.50;93.40;;;;;;4967040;28;20410;-72
2022/10/16 11:12:46;;;;;;;4.40;1.30;;;22.20;94.40;;;;;;4949548;28;20035;-75
2022/10/16 11:15:35;;;;;;;4.18;1.23;;;22.00;93.90;;;;;;4952142;28;20039;-74
2022/10/16 11:18:06;;;;;;;8.82;1.48;;;22.20;94.30;;;;;;4965915;28;20038;-74
2022/10/16 11:20:38;;;;;;;7.78;1.40;;;22.40;93.90;;;;;;4951679;28;20098;-74
2022/10/16 11:23:42;;;;;;;4.07;1.85;;;22.90;93.40;;;;;;4941948;28;20063;-75
2022/10/16 11:26:21;;;;;;;185.18;94.97;;;23.30;92.80;;;;;;4949647;28;20030;-76
2022/10/16 11:28:54;;;;;;;7.05;1.40;;;23.50;91.50;;;;;;4953882;28;20488;-75
2022/10/16 11:31:40;;;;;;;5.93;1.55;;;23.80;91.70;;;;;;4958541;28;20607;-74
2022/10/16 11:34:34;;;;;;;6.63;1.80;;;23.70;92.20;;;;;;4952914;28;20505;-73
2022/10/16 11:37:12;;;;;;;6.85;1.83;;;24.00;91.00;;;;;;4944374;28;20105;-75
2022/10/16 11:39:39;;;;;;;6.57;1.30;;;24.00;90.90;;;;;;4954702;28;20034;-76
2022/10/16 11:42:11;;;;;;;6.13;1.52;;;24.10;90.50;;;;;;4957737;28;20028;-74
2022/10/16 11:45:06;;;;;;;4.95;1.85;;;24.40;90.60;;;;;;4961557;28;20032;-73
2022/10/16 11:47:31;;;;;;;3.60;1.58;;;24.30;87.20;;;;;;4960400;28;20086;-74
2022/10/16 11:50:22;;;;;;;5.05;1.60;;;24.10;88.00;;;;;;4958677;28;20117;-73
2022/10/16 11:53:00;;;;;;;2.30;1.50;;;24.00;88.00;;;;;;4958912;28;20042;-76
2022/10/16 11:55:47;;;;;;;8.32;1.48;;;24.10;88.90;;;;;;4960780;28;20022;-76
2022/10/16 11:58:34;;;;;;;6.53;1.63;;;24.30;87.20;;;;;;4959839;28;20412;-76
2022/10/16 12:01:09;;;;;;;6.20;2.17;;;24.50;85.80;;;;;;4953349;28;20031;-75
2022/10/16 12:04:03;;;;;;;13.13;1.90;;;24.00;85.40;;;;;;4960214;28;20050;-72
2022/10/16 12:06:49;;;;;;;9.30;1.73;;;24.30;88.10;;;;;;4957692;28;20110;-75
2022/10/16 12:09:31;;;;;;;9.15;1.85;;;24.70;85.70;;;;;;4959071;28;20127;-74
2022/10/16 12:11:58;;;;;;;7.25;2.00;;;25.20;84.40;;;;;;4958175;28;20027;-74
2022/10/16 12:14:34;;;;;;;7.88;1.73;;;24.90;80.80;;;;;;4958073;28;20027;-75
2022/10/16 12:17:22;;;;;;;3.65;1.25;;;25.10;82.40;;;;;;4954749;28;20035;-71
2022/10/16 12:20:13;;;;;;;5.22;1.60;;;24.80;81.90;;;;;;4961940;28;20054;-76
2022/10/16 12:22:55;;;;;;;4.47;1.52;;;24.20;82.30;;;;;;4956943;28;20051;-74
2022/10/16 12:25:39;;;;;;;3.28;1.63;;;24.00;84.10;;;;;;4951868;28;20066;-74
2022/10/16 12:28:26;;;;;;;6.15;1.50;;;23.80;84.70;;;;;;4955203;28;20259;-73
2022/10/16 12:30:58;;;;;;;7.55;1.60;;;23.90;83.30;;;;;;4950647;28;20173;-75
2022/10/16 12:33:27;;;;;;;6.30;1.70;;;24.40;82.10;;;;;;4952110;28;20032;-75
2022/10/16 12:35:54;;;;;;;7.03;1.80;;;24.20;81.80;;;;;;4946616;28;20027;-74
2022/10/16 12:38:53;;;;;;;6.93;1.50;;;23.80;82.90;;;;;;4968923;28;20101;-73
2022/10/16 12:41:39;;;;;;;3.67;1.42;;;23.20;82.50;;;;;;4944130;28;20122;-77
2022/10/16 12:44:05;;;;;;;13.23;1.83;;;23.20;83.80;;;;;;4968293;28;20091;-77
2022/10/16 12:46:32;;;;;;;7.55;1.48;;;23.80;83.90;;;;;;4962803;28;20067;-75
2022/10/16 12:49:13;;;;;;;8.30;1.85;;;24.00;82.30;;;;;;4958921;28;20136;-75
2022/10/16 12:51:42;;;;;;;9.18;2.20;;;23.60;83.80;;;;;;4955616;28;20349;-76
2022/10/16 12:54:22;;;;;;;5.18;1.20;;;22.90;85.20;;;;;;4946584;28;20042;-77
2022/10/16 12:57:05;;;;;;;4.30;1.77;;;23.10;87.40;;;;;;4949372;28;20035;-75
2022/10/16 12:59:48;;;;;;;3.17;1.17;;;23.10;86.80;;;;;;4954464;28;20059;-78
2022/10/16 13:02:35;;;;;;;5.75;1.60;;;24.50;84.80;;;;;;4957499;28;20042;-76
2022/10/16 13:05:16;;;;;;;2.53;1.38;;;29.40;71.40;;;;;;4952818;28;20474;-74
2022/10/16 13:08:09;;;;;;;6.55;1.40;;;29.90;62.50;;;;;;4952904;28;20027;-74
2022/10/16 13:10:55;;;;;;;3.90;1.30;;;26.60;68.20;;;;;;4962082;28;20468;-75
2022/10/16 13:13:35;;;;;;;6.28;1.42;;;24.80;74.60;;;;;;4951745;28;20433;-74
2022/10/16 13:16:16;;;;;;;5.65;1.25;;;23.60;80.40;;;;;;4955719;28;20110;-75